createdAt,value
2018-07-25T00:00:52.883Z,23.70
2018-07-25T00:03:21.337Z,23.70
2018-07-25T00:05:49.773Z,23.70
2018-07-25T00:08:18.151Z,23.70
2018-07-25T00:10:53.494Z,23.70
2018-07-25T00:13:22.843Z,23.70
2018-07-25T00:15:51.249Z,23.70
2018-07-25T00:18:19.734Z,23.60
2018-07-25T00:20:48.201Z,23.60
2018-07-25T00:23:16.995Z,23.50
2018-07-25T00:25:45.485Z,23.50
2018-07-25T00:28:13.858Z,23.40
2018-07-25T00:30:42.237Z,23.40
2018-07-25T00:35:39.637Z,23.30
2018-07-25T00:38:07.993Z,23.30
2018-07-25T00:40:36.439Z,23.30
2018-07-25T00:43:04.830Z,23.20
2018-07-25T00:45:33.207Z,23.20
2018-07-25T00:48:01.585Z,23.10
2018-07-25T00:50:29.998Z,23.10
2018-07-25T00:52:58.436Z,23.10
2018-07-25T00:55:26.859Z,23.00
2018-07-25T00:57:55.221Z,23.00
2018-07-25T01:00:23.649Z,22.90
2018-07-25T01:02:52.053Z,22.90
2018-07-25T01:05:20.468Z,22.90
2018-07-25T01:07:48.825Z,22.80
2018-07-25T01:10:17.219Z,22.80
2018-07-25T01:12:45.752Z,22.70
2018-07-25T01:15:14.250Z,22.60
2018-07-25T01:17:42.639Z,22.60
2018-07-25T01:20:11.085Z,22.60
2018-07-25T01:22:39.426Z,22.60
2018-07-25T01:25:07.808Z,22.70
2018-07-25T01:27:36.197Z,22.60
2018-07-25T01:30:05.382Z,22.60
2018-07-25T01:32:33.792Z,22.50
2018-07-25T01:35:02.232Z,22.50
2018-07-25T01:37:30.596Z,22.50
2018-07-25T01:39:58.975Z,22.50
2018-07-25T01:42:27.376Z,22.60
2018-07-25T01:44:56.126Z,22.50
2018-07-25T01:49:52.966Z,22.40
2018-07-25T01:52:21.330Z,22.30
2018-07-25T01:54:49.797Z,22.30
2018-07-25T01:57:18.234Z,22.20
2018-07-25T01:59:46.617Z,22.20
2018-07-25T02:02:15.049Z,22.20
2018-07-25T02:04:43.453Z,22.20
2018-07-25T02:07:11.828Z,22.20
2018-07-25T02:09:40.193Z,22.10
2018-07-25T02:12:08.614Z,22.10
2018-07-25T02:17:05.118Z,22.10
2018-07-25T02:19:33.557Z,22.10
2018-07-25T02:22:01.867Z,22.00
2018-07-25T02:24:30.277Z,21.90
2018-07-25T02:26:58.683Z,21.90
2018-07-25T02:29:27.023Z,22.00
2018-07-25T02:31:55.458Z,21.90
2018-07-25T02:34:23.837Z,21.90
2018-07-25T02:36:52.763Z,21.90
2018-07-25T02:39:21.180Z,21.90
2018-07-25T02:41:49.563Z,21.70
2018-07-25T02:44:17.927Z,21.80
2018-07-25T02:46:46.406Z,21.80
2018-07-25T02:49:14.794Z,21.80
2018-07-25T02:51:43.187Z,21.80
2018-07-25T02:54:11.585Z,21.80
2018-07-25T02:56:40.022Z,21.70
2018-07-25T02:59:08.378Z,21.70
2018-07-25T03:01:36.855Z,21.70
2018-07-25T03:04:05.257Z,21.70
2018-07-25T03:06:33.654Z,21.60
2018-07-25T03:09:02.102Z,21.70
2018-07-25T03:11:30.501Z,21.70
2018-07-25T03:13:58.944Z,21.60
2018-07-25T03:16:27.301Z,21.40
2018-07-25T03:18:55.711Z,21.50
2018-07-25T03:21:24.150Z,21.40
2018-07-25T03:23:52.518Z,21.50
2018-07-25T03:26:21.011Z,21.50
2018-07-25T03:31:17.556Z,21.50
2018-07-25T03:33:45.954Z,21.50
2018-07-25T03:36:14.371Z,21.50
2018-07-25T03:38:42.857Z,21.50
2018-07-25T03:41:11.235Z,21.30
2018-07-25T03:43:39.637Z,21.20
2018-07-25T03:46:08.055Z,21.10
2018-07-25T03:48:36.485Z,21.20
2018-07-25T03:51:04.837Z,21.20
2018-07-25T03:53:33.201Z,21.10
2018-07-25T03:56:01.602Z,21.20
2018-07-25T03:58:29.981Z,21.20
2018-07-25T04:00:58.511Z,21.20
2018-07-25T04:03:26.888Z,21.40
2018-07-25T04:05:55.322Z,21.40
2018-07-25T04:08:23.718Z,21.50
2018-07-25T04:10:52.191Z,21.50
2018-07-25T04:13:20.622Z,21.60
2018-07-25T04:15:49.022Z,21.50
2018-07-25T04:18:17.349Z,21.30
2018-07-25T04:20:45.762Z,21.40
2018-07-25T04:23:14.109Z,21.30
2018-07-25T04:25:42.451Z,21.30
2018-07-25T04:28:10.857Z,21.40
2018-07-25T04:30:39.283Z,21.50
2018-07-25T04:33:07.701Z,21.70
2018-07-25T04:35:36.065Z,21.70
2018-07-25T04:38:04.520Z,21.90
2018-07-25T04:40:32.910Z,22.10
2018-07-25T04:43:01.270Z,22.20
2018-07-25T04:45:29.621Z,21.90
2018-07-25T04:47:58.086Z,22.00
2018-07-25T04:50:26.485Z,21.90
2018-07-25T04:52:54.874Z,21.90
2018-07-25T04:55:23.237Z,22.00
2018-07-25T04:57:51.626Z,22.20
2018-07-25T05:00:19.998Z,22.40
2018-07-25T05:02:48.385Z,22.70
2018-07-25T05:05:16.771Z,22.80
2018-07-25T05:07:45.164Z,23.00
2018-07-25T05:10:13.576Z,22.90
2018-07-25T05:12:41.946Z,23.00
2018-07-25T05:15:10.320Z,23.00
2018-07-25T05:17:38.718Z,23.20
2018-07-25T05:20:07.112Z,23.40
2018-07-25T05:22:35.502Z,23.50
2018-07-25T05:25:03.937Z,23.60
2018-07-25T05:27:32.347Z,23.70
2018-07-25T05:30:00.862Z,23.70
2018-07-25T05:32:29.290Z,23.80
2018-07-25T05:37:25.855Z,24.10
2018-07-25T05:39:54.273Z,24.00
2018-07-25T05:42:22.686Z,23.90
2018-07-25T05:44:51.113Z,24.10
2018-07-25T05:47:19.534Z,24.00
2018-07-25T05:49:47.894Z,24.20
2018-07-25T05:52:16.270Z,24.30
2018-07-25T05:54:44.681Z,24.30
2018-07-25T05:57:13.066Z,24.60
2018-07-25T05:59:41.440Z,24.80
2018-07-25T06:02:10.040Z,25.00
2018-07-25T06:04:38.385Z,24.90
2018-07-25T06:07:06.790Z,24.90
2018-07-25T06:09:35.139Z,24.90
2018-07-25T06:12:03.536Z,25.00
2018-07-25T06:14:31.954Z,25.00
2018-07-25T06:17:00.323Z,25.20
2018-07-25T06:19:28.669Z,25.30
2018-07-25T06:21:57.246Z,25.20
2018-07-25T06:24:25.631Z,25.30
2018-07-25T06:26:53.979Z,25.70
2018-07-25T06:29:22.322Z,25.90
2018-07-25T06:31:50.702Z,26.00
2018-07-25T06:34:19.153Z,26.00
2018-07-25T06:36:47.564Z,25.40
2018-07-25T06:39:15.917Z,25.40
2018-07-25T06:41:44.302Z,25.30
2018-07-25T06:44:12.695Z,25.10
2018-07-25T06:46:41.079Z,25.00
2018-07-25T06:49:09.433Z,25.30
2018-07-25T06:51:37.829Z,25.40
2018-07-25T06:54:06.482Z,25.40
2018-07-25T06:56:34.881Z,25.40
2018-07-25T06:59:03.516Z,25.50
2018-07-25T07:01:32.774Z,25.70
2018-07-25T07:04:01.184Z,25.90
2018-07-25T07:06:29.694Z,26.00
2018-07-25T07:08:58.021Z,26.10
2018-07-25T07:11:26.384Z,26.10
2018-07-25T07:13:54.808Z,26.40
2018-07-25T07:16:23.222Z,26.60
2018-07-25T07:18:51.622Z,26.70
2018-07-25T07:21:20.006Z,26.80
2018-07-25T07:23:48.440Z,26.90
2018-07-25T07:26:16.828Z,27.00
2018-07-25T07:28:45.213Z,27.10
2018-07-25T07:31:13.663Z,27.40
2018-07-25T07:33:42.069Z,27.10
2018-07-25T07:36:10.542Z,27.00
2018-07-25T07:38:38.918Z,27.00
2018-07-25T07:41:07.319Z,27.40
2018-07-25T07:43:35.800Z,27.50
2018-07-25T07:46:04.304Z,27.70
2018-07-25T07:48:33.703Z,27.80
2018-07-25T07:51:02.159Z,27.50
2018-07-25T07:53:30.577Z,27.20
2018-07-25T07:55:58.954Z,27.40
2018-07-25T07:58:27.402Z,27.50
2018-07-25T08:00:55.779Z,27.50
2018-07-25T08:03:24.272Z,27.20
2018-07-25T08:05:52.658Z,27.00
2018-07-25T08:08:21.075Z,27.10
2018-07-25T08:10:49.525Z,27.10
2018-07-25T08:13:17.886Z,27.20
2018-07-25T08:18:14.438Z,27.40
2018-07-25T08:20:42.938Z,27.30
2018-07-25T08:23:11.402Z,27.30
2018-07-25T08:25:39.796Z,27.40
2018-07-25T08:28:08.156Z,27.50
2018-07-25T08:30:36.566Z,27.40
2018-07-25T08:33:04.986Z,27.50
2018-07-25T08:35:33.359Z,27.60
2018-07-25T08:38:01.751Z,27.50
2018-07-25T08:40:30.098Z,27.50
2018-07-25T08:42:58.478Z,27.70
2018-07-25T08:45:26.914Z,27.70
2018-07-25T08:47:55.287Z,27.70
2018-07-25T08:50:23.766Z,27.90
2018-07-25T08:52:52.154Z,27.80
2018-07-25T08:55:20.493Z,27.70
2018-07-25T08:57:48.874Z,27.60
2018-07-25T09:00:17.249Z,27.80
2018-07-25T09:02:45.690Z,28.00
2018-07-25T09:05:14.066Z,28.00
2018-07-25T09:07:42.577Z,28.00
2018-07-25T09:10:10.962Z,27.90
2018-07-25T09:12:39.347Z,27.60
2018-07-25T09:15:07.800Z,27.40
2018-07-25T09:17:36.254Z,27.50
2018-07-25T09:20:05.439Z,27.60
2018-07-25T09:22:33.859Z,27.80
2018-07-25T09:25:02.352Z,28.00
2018-07-25T09:27:30.731Z,28.10
2018-07-25T09:29:59.151Z,28.10
2018-07-25T09:32:27.499Z,27.90
2018-07-25T09:34:55.906Z,27.90
2018-07-25T09:37:24.337Z,27.80
2018-07-25T09:39:52.733Z,27.80
2018-07-25T09:42:21.258Z,27.80
2018-07-25T09:44:49.676Z,27.50
2018-07-25T09:47:18.086Z,27.50
2018-07-25T09:49:46.520Z,27.50
2018-07-25T09:52:14.921Z,27.40
2018-07-25T09:54:44.078Z,27.50
2018-07-25T09:57:12.533Z,27.60
2018-07-25T09:59:40.950Z,27.70
2018-07-25T10:02:09.341Z,27.60
2018-07-25T10:04:37.758Z,27.50
2018-07-25T10:07:06.182Z,27.50
2018-07-25T10:09:34.667Z,27.50
2018-07-25T10:12:03.055Z,27.70
2018-07-25T10:14:31.441Z,27.80
2018-07-25T10:17:00.047Z,27.90
2018-07-25T10:19:28.461Z,28.00
2018-07-25T10:21:56.813Z,28.10
2018-07-25T10:24:25.289Z,28.00
2018-07-25T10:26:53.690Z,28.10
2018-07-25T10:29:22.128Z,28.10
2018-07-25T10:31:50.513Z,28.20
2018-07-25T10:34:18.964Z,28.20
2018-07-25T10:36:47.436Z,28.20
2018-07-25T10:39:15.821Z,28.30
2018-07-25T10:41:44.184Z,28.40
2018-07-25T10:44:12.584Z,28.50
2018-07-25T10:46:41.161Z,28.40
2018-07-25T10:49:09.569Z,28.50
2018-07-25T10:54:06.150Z,28.40
2018-07-25T10:56:34.553Z,28.40
2018-07-25T10:59:03.810Z,28.40
2018-07-25T11:01:32.200Z,28.30
2018-07-25T11:04:00.711Z,28.30
2018-07-25T11:06:29.418Z,28.40
2018-07-25T11:08:57.856Z,28.30
2018-07-25T11:11:29.041Z,28.30
2018-07-25T11:13:58.822Z,28.10
2018-07-25T11:16:27.392Z,28.10
2018-07-25T11:18:55.719Z,28.40
2018-07-25T11:21:24.134Z,28.20
2018-07-25T11:23:52.506Z,28.40
2018-07-25T11:26:21.122Z,28.40
2018-07-25T11:31:18.016Z,28.50
2018-07-25T11:33:46.368Z,28.60
2018-07-25T11:36:14.794Z,28.60
2018-07-25T11:38:43.631Z,28.70
2018-07-25T11:41:15.512Z,28.60
2018-07-25T11:43:44.600Z,28.70
2018-07-25T11:46:13.612Z,28.70
2018-07-25T11:48:42.687Z,28.70
2018-07-25T11:51:11.334Z,28.80
2018-07-25T11:53:40.476Z,28.70
2018-07-25T11:56:09.324Z,28.70
2018-07-25T11:58:38.061Z,28.60
2018-07-25T12:01:07.112Z,28.50
2018-07-25T12:03:35.808Z,28.50
2018-07-25T12:06:04.508Z,28.60
2018-07-25T12:08:33.816Z,28.70
2018-07-25T12:11:03.481Z,29.00
2018-07-25T12:13:31.957Z,28.80
2018-07-25T12:16:00.365Z,28.60
2018-07-25T12:18:28.761Z,28.70
2018-07-25T12:23:25.471Z,29.00
2018-07-25T12:25:54.066Z,29.00
2018-07-25T12:28:22.509Z,28.90
2018-07-25T12:30:51.016Z,28.80
2018-07-25T12:33:19.409Z,28.90
2018-07-25T12:35:47.829Z,29.10
2018-07-25T12:38:16.405Z,29.00
2018-07-25T12:40:44.852Z,28.80
2018-07-25T12:43:13.261Z,28.80
2018-07-25T12:45:41.645Z,28.80
2018-07-25T12:48:10.025Z,28.90
2018-07-25T12:50:38.481Z,28.90
2018-07-25T12:53:06.933Z,29.00
2018-07-25T12:55:35.286Z,28.90
2018-07-25T12:58:03.717Z,29.10
2018-07-25T13:00:32.494Z,29.20
2018-07-25T13:03:00.913Z,29.10
2018-07-25T13:07:57.489Z,29.00
2018-07-25T13:10:25.926Z,29.30
2018-07-25T13:12:54.399Z,29.50
2018-07-25T13:15:22.772Z,29.70
2018-07-25T13:17:51.243Z,29.70
2018-07-25T13:20:19.636Z,29.50
2018-07-25T13:22:48.106Z,29.50
2018-07-25T13:25:16.681Z,29.40
2018-07-25T13:27:45.141Z,29.30
2018-07-25T13:30:13.534Z,29.40
2018-07-25T13:32:41.944Z,29.50
2018-07-25T13:35:10.429Z,29.50
2018-07-25T13:37:38.854Z,29.60
2018-07-25T13:40:07.415Z,29.60
2018-07-25T13:42:35.815Z,29.50
2018-07-25T13:45:04.557Z,29.60
2018-07-25T13:47:33.062Z,29.60
2018-07-25T13:50:01.483Z,29.60
2018-07-25T13:52:29.862Z,29.60
2018-07-25T13:54:58.299Z,29.60
2018-07-25T13:57:26.681Z,29.80
2018-07-25T13:59:55.086Z,29.70
2018-07-25T14:02:23.522Z,29.70
2018-07-25T14:04:51.943Z,29.60
2018-07-25T14:07:20.325Z,29.70
2018-07-25T14:09:48.729Z,29.70
2018-07-25T14:12:17.241Z,29.70
2018-07-25T14:14:45.629Z,29.80
2018-07-25T14:17:14.009Z,29.80
2018-07-25T14:19:42.485Z,29.70
2018-07-25T14:22:11.058Z,30.00
2018-07-25T14:24:39.607Z,30.00
2018-07-25T14:27:08.115Z,29.90
2018-07-25T14:29:36.497Z,29.80
2018-07-25T14:32:04.964Z,29.80
2018-07-25T14:34:33.343Z,29.80
2018-07-25T14:37:01.762Z,29.80
2018-07-25T14:39:30.207Z,29.80
2018-07-25T14:41:58.665Z,29.70
2018-07-25T14:44:27.060Z,29.70
2018-07-25T14:46:55.544Z,29.80
2018-07-25T14:49:23.887Z,30.00
2018-07-25T14:51:52.430Z,29.80
2018-07-25T14:54:20.830Z,29.90
2018-07-25T14:56:49.200Z,29.90
2018-07-25T14:59:17.878Z,30.00
2018-07-25T15:01:46.270Z,30.10
2018-07-25T15:04:14.733Z,30.10
2018-07-25T15:06:43.169Z,30.20
2018-07-25T15:09:12.000Z,30.20
2018-07-25T15:11:40.770Z,30.10
2018-07-25T15:14:09.593Z,30.20
2018-07-25T15:16:38.278Z,30.30
2018-07-25T15:19:06.734Z,30.40
2018-07-25T15:21:35.227Z,30.50
2018-07-25T15:24:05.122Z,30.60
2018-07-25T15:26:33.582Z,30.50
2018-07-25T15:29:02.575Z,30.50
2018-07-25T15:31:30.954Z,30.60
2018-07-25T15:33:59.499Z,30.60
2018-07-25T15:36:44.246Z,30.50
2018-07-25T15:39:15.277Z,30.60
2018-07-25T15:41:45.049Z,30.70
2018-07-25T15:44:13.550Z,29.90
2018-07-25T15:46:42.465Z,28.40
2018-07-25T15:49:10.962Z,27.20
2018-07-25T15:51:40.116Z,25.50
2018-07-25T15:54:08.718Z,24.60
2018-07-25T15:56:37.822Z,24.70
2018-07-25T15:59:06.509Z,25.00
2018-07-25T16:01:35.032Z,25.20
2018-07-25T16:04:03.385Z,25.20
2018-07-25T16:06:31.825Z,25.10
2018-07-25T16:09:00.213Z,25.30
2018-07-25T16:11:28.614Z,25.40
2018-07-25T16:13:57.115Z,25.50
2018-07-25T16:16:25.497Z,25.50
2018-07-25T16:18:53.877Z,25.50
2018-07-25T16:21:22.293Z,25.60
2018-07-25T16:23:50.778Z,25.60
2018-07-25T16:26:19.296Z,25.70
2018-07-25T16:28:47.783Z,25.60
2018-07-25T16:31:16.261Z,25.60
2018-07-25T16:33:44.721Z,25.60
2018-07-25T16:36:13.142Z,25.50
2018-07-25T16:38:41.629Z,25.50
2018-07-25T16:41:10.045Z,25.60
2018-07-25T16:43:38.434Z,25.50
2018-07-25T16:46:06.904Z,25.60
2018-07-25T16:48:35.289Z,25.50
2018-07-25T16:51:03.718Z,25.70
2018-07-25T16:53:32.192Z,25.80
2018-07-25T16:56:00.651Z,25.80
2018-07-25T16:58:29.080Z,26.00
2018-07-25T17:00:57.593Z,26.00
2018-07-25T17:03:26.017Z,26.10
2018-07-25T17:05:54.454Z,26.10
2018-07-25T17:08:22.931Z,26.10
2018-07-25T17:10:51.372Z,26.10
2018-07-25T17:13:19.858Z,26.10
2018-07-25T17:18:19.559Z,26.20
2018-07-25T17:20:49.035Z,26.20
2018-07-25T17:23:17.538Z,26.20
2018-07-25T17:25:46.162Z,26.10
2018-07-25T17:28:14.563Z,26.20
2018-07-25T17:30:43.440Z,26.20
2018-07-25T17:33:11.992Z,26.20
2018-07-25T17:35:40.393Z,26.20
2018-07-25T17:38:08.974Z,26.10
2018-07-25T17:43:05.827Z,26.00
2018-07-25T17:45:34.447Z,25.90
2018-07-25T17:48:02.853Z,25.90
2018-07-25T17:50:31.225Z,25.90
2018-07-25T17:52:59.723Z,25.90
2018-07-25T17:55:28.411Z,25.90
2018-07-25T17:57:56.863Z,25.90
2018-07-25T18:00:25.257Z,25.90
2018-07-25T18:02:53.697Z,25.80
2018-07-25T18:10:18.501Z,25.90
2018-07-25T18:12:46.960Z,25.90
2018-07-25T18:15:15.406Z,25.90
2018-07-25T18:17:43.809Z,25.90
2018-07-25T18:20:12.233Z,25.90
2018-07-25T18:22:40.743Z,25.80
2018-07-25T18:25:09.190Z,25.80
2018-07-25T18:27:37.569Z,25.80
2018-07-25T18:30:06.494Z,25.80
2018-07-25T18:32:34.878Z,25.80
2018-07-25T18:35:03.435Z,25.80
2018-07-25T18:37:31.809Z,25.60
2018-07-25T18:40:00.235Z,25.50
2018-07-25T18:42:28.667Z,25.30
2018-07-25T18:44:57.057Z,25.30
2018-07-25T18:47:25.447Z,25.40
2018-07-25T18:49:53.902Z,25.40
2018-07-25T18:52:22.265Z,25.30
2018-07-25T18:54:50.722Z,25.20
2018-07-25T18:57:19.150Z,25.20
2018-07-25T18:59:47.506Z,25.20
2018-07-25T19:02:15.925Z,25.10
2018-07-25T19:04:44.333Z,25.00
2018-07-25T19:07:12.761Z,25.10
2018-07-25T19:09:41.124Z,25.00
2018-07-25T19:12:09.552Z,25.00
2018-07-25T19:17:11.572Z,24.90
2018-07-25T19:19:40.142Z,25.00
2018-07-25T19:25:06.308Z,25.00
2018-07-25T19:27:34.669Z,24.90
2018-07-25T19:30:03.160Z,25.00
2018-07-25T19:32:31.899Z,25.00
2018-07-25T19:35:01.150Z,25.00
2018-07-25T19:37:29.594Z,24.90
2018-07-25T19:39:57.973Z,25.00
2018-07-25T19:42:26.414Z,24.90
2018-07-25T19:44:54.822Z,24.90
2018-07-25T19:47:23.185Z,24.90
2018-07-25T19:49:51.646Z,24.90
2018-07-25T19:52:20.059Z,24.80
2018-07-25T19:54:48.502Z,24.70
2018-07-25T19:57:16.864Z,24.70
2018-07-25T19:59:45.262Z,24.70
2018-07-25T20:02:13.699Z,24.60
2018-07-25T20:04:42.092Z,24.40
2018-07-25T20:07:10.732Z,24.40
2018-07-25T20:09:39.261Z,24.40
2018-07-25T20:12:07.711Z,24.50
2018-07-25T20:14:41.614Z,24.40
2018-07-25T20:17:10.511Z,24.40
2018-07-25T20:27:37.586Z,24.40
2018-07-25T20:30:07.502Z,24.20
2018-07-25T20:32:35.965Z,24.10
2018-07-25T20:35:05.200Z,24.10
2018-07-25T20:37:33.932Z,24.00
2018-07-25T20:40:02.485Z,24.00
2018-07-25T20:42:30.945Z,23.90
2018-07-25T20:44:59.463Z,23.90
2018-07-25T20:47:27.853Z,23.80
2018-07-25T20:49:56.237Z,23.80
2018-07-25T20:52:24.654Z,23.80
2018-07-25T20:54:53.061Z,23.80
2018-07-25T20:57:21.512Z,23.70
2018-07-25T20:59:50.721Z,23.70
2018-07-25T21:02:19.533Z,23.60
2018-07-25T21:04:48.491Z,23.60
2018-07-25T21:07:17.452Z,23.50
2018-07-25T21:09:49.601Z,23.50
2018-07-25T21:12:18.561Z,23.50
2018-07-25T21:14:47.379Z,23.40
2018-07-25T21:17:16.184Z,23.40
2018-07-25T21:19:45.020Z,23.20
2018-07-25T21:22:13.929Z,23.10
2018-07-25T21:24:43.139Z,23.10
2018-07-25T21:27:12.698Z,23.20
2018-07-25T21:29:43.033Z,23.10
2018-07-25T21:32:12.400Z,23.10
2018-07-25T21:34:41.436Z,23.00
2018-07-25T21:37:12.456Z,23.00
2018-07-25T21:39:41.575Z,23.10
2018-07-25T21:42:10.229Z,23.00
2018-07-25T21:44:38.577Z,23.10
2018-07-25T21:47:07.049Z,23.00
2018-07-25T21:49:35.401Z,23.00
2018-07-25T21:52:03.851Z,23.10
2018-07-25T21:54:32.286Z,23.00
2018-07-25T21:57:00.675Z,22.90
2018-07-25T21:59:29.085Z,22.90
2018-07-25T22:01:57.473Z,22.90
2018-07-25T22:04:25.852Z,22.90
2018-07-25T22:06:54.298Z,22.80
2018-07-25T22:09:22.690Z,22.80
2018-07-25T22:11:51.170Z,22.80
2018-07-25T22:14:20.008Z,22.80
2018-07-25T22:16:48.405Z,22.70
2018-07-25T22:19:16.814Z,22.70
2018-07-25T22:21:45.186Z,22.60
2018-07-25T22:24:13.570Z,22.60
2018-07-25T22:26:42.007Z,22.50
2018-07-25T22:29:10.408Z,22.40
2018-07-25T22:31:38.818Z,22.30
2018-07-25T22:34:07.226Z,22.30
2018-07-25T22:36:35.590Z,22.30
2018-07-25T22:39:06.102Z,22.30
2018-07-25T22:41:34.477Z,22.30
2018-07-25T22:44:02.961Z,22.30
2018-07-25T22:46:31.417Z,22.20
2018-07-25T22:48:59.801Z,22.20
2018-07-25T22:51:28.412Z,22.10
2018-07-25T22:53:56.969Z,22.20
2018-07-25T22:56:25.530Z,22.10
2018-07-25T22:58:53.869Z,22.10
2018-07-25T23:01:22.290Z,22.10
2018-07-25T23:03:50.655Z,22.10
2018-07-25T23:06:19.014Z,22.10
2018-07-25T23:08:47.402Z,22.10
2018-07-25T23:11:15.765Z,22.00
2018-07-25T23:13:46.488Z,22.00
2018-07-25T23:16:15.957Z,22.00
2018-07-25T23:18:44.486Z,21.90
2018-07-25T23:21:13.029Z,21.90
2018-07-25T23:23:41.394Z,22.00
2018-07-25T23:26:09.793Z,21.90
2018-07-25T23:28:38.246Z,21.90
2018-07-25T23:31:06.709Z,21.90
2018-07-25T23:33:35.073Z,21.90
2018-07-25T23:36:03.469Z,21.80
2018-07-25T23:38:31.894Z,21.90
2018-07-25T23:41:00.271Z,21.90
2018-07-25T23:43:28.685Z,21.90
2018-07-25T23:45:57.089Z,21.90
2018-07-25T23:48:25.501Z,21.90
2018-07-25T23:50:53.857Z,21.80
2018-07-25T23:53:22.254Z,21.70
2018-07-25T23:55:50.653Z,21.70
2018-07-25T23:58:19.050Z,21.70
